Terminal Aerodrome Forecast
Issued by NWS Corpus Christi, TX

Home | Current Version | Previous Version | Text Only | Print | Product List | Glossary On
Versions: 1 2 3 4 5 6 7 8 9 10 11 12 13 14 15 16
000
FTUS44 KCRP 221120
TAFVCT
TAF
KVCT 221120Z 2212/2312 VRB05KT P6SM -TSRA FEW009 BKN018CB
      TEMPO 2212/2215 VRB15G22KT 3SM TSRA OVC009CB
     FM221500 VRB06KT P6SM VCSH BKN015 OVC100
     FM221900 05007KT P6SM VCTS OVC035CB
      TEMPO 2219/2223 3SM -TSRA OVC012CB
     FM230300 VRB06KT P6SM OVC025 PROB30 2306/2312 5SM -TSRA
      BKN015CB=

USA.gov is the U.S. government's official web portal to all federal, state and local government web resources and services.